sensor_id;sensor_type;location;lat;lon;timestamp;noise_LAeq;noise_LA_min;noise_LA_max;noise_LA01;noise_LA95
77361;Laerm;66427;51.798;10.954;2023-04-01T00:00:17;29.99;27.80;39.40;;
77361;Laerm;66427;51.798;10.954;2023-04-01T00:02:43;29.49;27.64;39.01;;
77361;Laerm;66427;51.798;10.954;2023-04-01T00:05:09;31.29;28.42;39.11;;
77361;Laerm;66427;51.798;10.954;2023-04-01T00:07:36;30.48;28.36;37.26;;
77361;Laerm;66427;51.798;10.954;2023-04-01T00:10:03;31.49;28.11;40.03;;
77361;Laerm;66427;51.798;10.954;2023-04-01T00:12:30;29.08;27.70;34.39;;
77361;Laerm;66427;51.798;10.954;2023-04-01T00:14:55;31.13;27.67;45.22;;
77361;Laerm;66427;51.798;10.954;2023-04-01T00:17:21;48.91;28.63;65.59;;
77361;Laerm;66427;51.798;10.954;2023-04-01T00:19:47;33.57;29.52;41.31;;
77361;Laerm;66427;51.798;10.954;2023-04-01T00:22:13;39.42;33.66;49.63;;
77361;Laerm;66427;51.798;10.954;2023-04-01T00:24:39;45.34;28.21;60.23;;
77361;Laerm;66427;51.798;10.954;2023-04-01T00:27:05;28.21;27.17;31.16;;
77361;Laerm;66427;51.798;10.954;2023-04-01T00:29:32;29.15;27.39;41.50;;
77361;Laerm;66427;51.798;10.954;2023-04-01T00:31:58;28.46;27.53;33.92;;
77361;Laerm;66427;51.798;10.954;2023-04-01T00:34:24;29.35;27.82;33.09;;
77361;Laerm;66427;51.798;10.954;2023-04-01T00:36:50;28.87;27.88;34.30;;
77361;Laerm;66427;51.798;10.954;2023-04-01T00:39:17;49.05;27.72;72.35;;
77361;Laerm;66427;51.798;10.954;2023-04-01T00:41:43;33.00;28.94;40.64;;
77361;Laerm;66427;51.798;10.954;2023-04-01T00:44:16;31.10;28.66;36.39;;
77361;Laerm;66427;51.798;10.954;2023-04-01T00:46:43;47.57;27.91;63.51;;
77361;Laerm;66427;51.798;10.954;2023-04-01T00:49:08;30.40;28.06;38.75;;
77361;Laerm;66427;51.798;10.954;2023-04-01T00:51:35;30.21;27.88;38.69;;
77361;Laerm;66427;51.798;10.954;2023-04-01T00:54:03;29.01;27.70;37.34;;
77361;Laerm;66427;51.798;10.954;2023-04-01T00:56:34;30.24;27.19;41.76;;
77361;Laerm;66427;51.798;10.954;2023-04-01T00:59:04;31.65;27.67;45.23;;
77361;Laerm;66427;51.798;10.954;2023-04-01T01:01:34;28.80;27.57;37.51;;
77361;Laerm;66427;51.798;10.954;2023-04-01T01:04:01;30.16;27.26;39.61;;
77361;Laerm;66427;51.798;10.954;2023-04-01T01:09:25;29.30;27.92;33.55;;
77361;Laerm;66427;51.798;10.954;2023-04-01T01:12:11;29.83;27.58;43.06;;
77361;Laerm;66427;51.798;10.954;2023-04-01T01:14:45;30.07;27.62;43.62;;
77361;Laerm;66427;51.798;10.954;2023-04-01T01:17:23;29.64;27.49;37.44;;
77361;Laerm;66427;51.798;10.954;2023-04-01T01:22:36;31.15;27.79;41.34;;
77361;Laerm;66427;51.798;10.954;2023-04-01T01:25:14;29.04;27.66;32.95;;
77361;Laerm;66427;51.798;10.954;2023-04-01T01:27:41;28.21;27.34;36.44;;
77361;Laerm;66427;51.798;10.954;2023-04-01T01:30:16;28.10;27.11;34.10;;
77361;Laerm;66427;51.798;10.954;2023-04-01T01:35:37;29.41;27.75;35.89;;
77361;Laerm;66427;51.798;10.954;2023-04-01T01:38:05;30.11;28.35;34.00;;
77361;Laerm;66427;51.798;10.954;2023-04-01T01:40:31;28.39;27.29;38.06;;
77361;Laerm;66427;51.798;10.954;2023-04-01T01:42:59;28.00;27.22;35.55;;
77361;Laerm;66427;51.798;10.954;2023-04-01T01:45:26;33.54;27.24;43.69;;
77361;Laerm;66427;51.798;10.954;2023-04-01T01:47:53;33.19;27.84;47.27;;
77361;Laerm;66427;51.798;10.954;2023-04-01T01:50:20;36.62;28.25;45.83;;
77361;Laerm;66427;51.798;10.954;2023-04-01T01:52:47;30.03;27.35;36.97;;
77361;Laerm;66427;51.798;10.954;2023-04-01T01:58:22;43.43;27.90;59.30;;
77361;Laerm;66427;51.798;10.954;2023-04-01T02:00:55;29.05;27.56;33.36;;
77361;Laerm;66427;51.798;10.954;2023-04-01T02:03:23;29.57;27.81;34.29;;
77361;Laerm;66427;51.798;10.954;2023-04-01T02:05:50;29.03;27.57;35.39;;
77361;Laerm;66427;51.798;10.954;2023-04-01T02:08:18;29.67;27.70;33.11;;
77361;Laerm;66427;51.798;10.954;2023-04-01T02:10:52;29.94;28.10;34.47;;
77361;Laerm;66427;51.798;10.954;2023-04-01T02:13:26;29.10;27.40;32.68;;
77361;Laerm;66427;51.798;10.954;2023-04-01T02:15:55;29.65;27.53;39.48;;
77361;Laerm;66427;51.798;10.954;2023-04-01T02:18:22;30.04;27.86;35.97;;
77361;Laerm;66427;51.798;10.954;2023-04-01T02:20:48;29.89;27.73;38.86;;
77361;Laerm;66427;51.798;10.954;2023-04-01T02:23:14;29.76;28.30;34.79;;
77361;Laerm;66427;51.798;10.954;2023-04-01T02:25:41;29.70;27.77;35.03;;
77361;Laerm;66427;51.798;10.954;2023-04-01T02:28:07;28.63;27.66;34.55;;
77361;Laerm;66427;51.798;10.954;2023-04-01T02:30:35;29.70;28.00;37.60;;
77361;Laerm;66427;51.798;10.954;2023-04-01T02:33:01;30.11;28.10;33.15;;
77361;Laerm;66427;51.798;10.954;2023-04-01T02:35:28;30.40;28.32;38.78;;
77361;Laerm;66427;51.798;10.954;2023-04-01T02:37:54;29.20;27.65;40.10;;
77361;Laerm;66427;51.798;10.954;2023-04-01T02:40:20;28.95;27.81;32.24;;
77361;Laerm;66427;51.798;10.954;2023-04-01T02:42:46;28.95;27.59;35.66;;
77361;Laerm;66427;51.798;10.954;2023-04-01T02:45:12;28.98;27.89;33.66;;
77361;Laerm;66427;51.798;10.954;2023-04-01T02:47:38;30.25;28.06;37.20;;
77361;Laerm;66427;51.798;10.954;2023-04-01T02:50:04;30.18;28.60;35.99;;
77361;Laerm;66427;51.798;10.954;2023-04-01T02:52:30;29.80;28.38;34.29;;
77361;Laerm;66427;51.798;10.954;2023-04-01T02:54:56;30.34;28.88;36.41;;
77361;Laerm;66427;51.798;10.954;2023-04-01T02:57:23;30.67;28.43;37.47;;
77361;Laerm;66427;51.798;10.954;2023-04-01T02:59:48;30.50;28.91;38.31;;
77361;Laerm;66427;51.798;10.954;2023-04-01T03:02:15;50.38;28.57;65.81;;
77361;Laerm;66427;51.798;10.954;2023-04-01T03:04:40;30.41;28.88;37.71;;
77361;Laerm;66427;51.798;10.954;2023-04-01T03:07:06;31.43;28.83;42.88;;
77361;Laerm;66427;51.798;10.954;2023-04-01T03:09:33;32.72;29.12;42.06;;
77361;Laerm;66427;51.798;10.954;2023-04-01T03:11:59;35.11;29.31;47.69;;
77361;Laerm;66427;51.798;10.954;2023-04-01T03:14:25;37.48;29.86;52.95;;
77361;Laerm;66427;51.798;10.954;2023-04-01T03:16:50;37.24;29.88;49.62;;
77361;Laerm;66427;51.798;10.954;2023-04-01T03:19:16;37.05;30.65;49.50;;
77361;Laerm;66427;51.798;10.954;2023-04-01T03:21:42;32.17;29.17;43.33;;
77361;Laerm;66427;51.798;10.954;2023-04-01T03:24:08;36.83;30.37;54.69;;
77361;Laerm;66427;51.798;10.954;2023-04-01T03:26:33;33.46;29.44;40.24;;
77361;Laerm;66427;51.798;10.954;2023-04-01T03:28:59;53.70;30.11;72.09;;
77361;Laerm;66427;51.798;10.954;2023-04-01T03:31:25;37.00;29.54;55.71;;
77361;Laerm;66427;51.798;10.954;2023-04-01T03:33:51;39.08;29.67;51.95;;
77361;Laerm;66427;51.798;10.954;2023-04-01T03:36:17;34.66;30.22;45.76;;
77361;Laerm;66427;51.798;10.954;2023-04-01T03:38:43;37.39;29.75;51.45;;
77361;Laerm;66427;51.798;10.954;2023-04-01T03:41:13;47.28;31.29;61.38;;
77361;Laerm;66427;51.798;10.954;2023-04-01T03:43:39;41.95;32.40;57.22;;
77361;Laerm;66427;51.798;10.954;2023-04-01T03:46:05;50.41;30.80;67.32;;
77361;Laerm;66427;51.798;10.954;2023-04-01T03:48:31;49.29;30.54;66.78;;
77361;Laerm;66427;51.798;10.954;2023-04-01T03:50:56;42.36;30.95;54.49;;
77361;Laerm;66427;51.798;10.954;2023-04-01T03:53:22;43.16;31.67;53.79;;
77361;Laerm;66427;51.798;10.954;2023-04-01T03:55:48;42.95;30.89;55.88;;
77361;Laerm;66427;51.798;10.954;2023-04-01T03:58:16;47.85;32.53;61.21;;
77361;Laerm;66427;51.798;10.954;2023-04-01T04:00:41;50.61;31.76;63.69;;
77361;Laerm;66427;51.798;10.954;2023-04-01T04:03:07;45.67;31.19;57.96;;
77361;Laerm;66427;51.798;10.954;2023-04-01T04:05:33;52.49;32.58;68.32;;
77361;Laerm;66427;51.798;10.954;2023-04-01T04:07:59;48.94;32.64;62.51;;
77361;Laerm;66427;51.798;10.954;2023-04-01T04:10:24;51.53;34.50;61.47;;
77361;Laerm;66427;51.798;10.954;2023-04-01T04:12:50;53.70;33.47;68.61;;
77361;Laerm;66427;51.798;10.954;2023-04-01T04:15:16;54.36;33.39;67.42;;
77361;Laerm;66427;51.798;10.954;2023-04-01T04:17:42;52.57;35.48;65.13;;
77361;Laerm;66427;51.798;10.954;2023-04-01T04:20:07;48.25;33.69;57.40;;
77361;Laerm;66427;51.798;10.954;2023-04-01T04:22:34;45.37;34.10;53.95;;
77361;Laerm;66427;51.798;10.954;2023-04-01T04:24:59;46.61;33.78;55.05;;
77361;Laerm;66427;51.798;10.954;2023-04-01T04:27:25;46.48;32.47;58.11;;
77361;Laerm;66427;51.798;10.954;2023-04-01T04:29:51;48.37;33.45;61.31;;
77361;Laerm;66427;51.798;10.954;2023-04-01T04:32:17;48.58;33.80;63.35;;
77361;Laerm;66427;51.798;10.954;2023-04-01T04:34:42;42.68;32.47;53.65;;
77361;Laerm;66427;51.798;10.954;2023-04-01T04:37:08;46.20;31.57;56.33;;
77361;Laerm;66427;51.798;10.954;2023-04-01T04:39:34;53.41;33.38;70.90;;
77361;Laerm;66427;51.798;10.954;2023-04-01T04:42:00;43.51;32.94;54.03;;
77361;Laerm;66427;51.798;10.954;2023-04-01T04:44:25;41.45;32.04;53.69;;
77361;Laerm;66427;51.798;10.954;2023-04-01T04:46:51;51.34;33.06;68.54;;
77361;Laerm;66427;51.798;10.954;2023-04-01T04:49:17;59.84;33.89;78.61;;
77361;Laerm;66427;51.798;10.954;2023-04-01T04:51:43;46.59;34.16;58.08;;
77361;Laerm;66427;51.798;10.954;2023-04-01T04:54:09;45.49;31.76;61.71;;
77361;Laerm;66427;51.798;10.954;2023-04-01T04:56:35;41.63;33.98;54.15;;
77361;Laerm;66427;51.798;10.954;2023-04-01T04:59:00;49.17;31.98;63.85;;
77361;Laerm;66427;51.798;10.954;2023-04-01T05:01:26;38.89;32.73;55.48;;
77361;Laerm;66427;51.798;10.954;2023-04-01T05:03:52;40.59;32.45;54.58;;
77361;Laerm;66427;51.798;10.954;2023-04-01T05:06:19;44.25;32.41;56.70;;
77361;Laerm;66427;51.798;10.954;2023-04-01T05:08:45;48.31;32.63;62.92;;
77361;Laerm;66427;51.798;10.954;2023-04-01T05:11:12;44.43;31.49;59.14;;
77361;Laerm;66427;51.798;10.954;2023-04-01T05:13:38;47.64;33.23;58.77;;
77361;Laerm;66427;51.798;10.954;2023-04-01T05:16:07;43.96;34.58;55.59;;
77361;Laerm;66427;51.798;10.954;2023-04-01T05:18:32;56.48;33.98;84.71;;
77361;Laerm;66427;51.798;10.954;2023-04-01T05:20:58;54.88;33.70;67.44;;
77361;Laerm;66427;51.798;10.954;2023-04-01T05:23:24;51.18;35.13;68.35;;
77361;Laerm;66427;51.798;10.954;2023-04-01T05:25:50;52.23;33.68;68.24;;
77361;Laerm;66427;51.798;10.954;2023-04-01T05:28:18;43.53;34.77;58.74;;
77361;Laerm;66427;51.798;10.954;2023-04-01T05:30:44;48.33;35.12;61.38;;
77361;Laerm;66427;51.798;10.954;2023-04-01T05:33:10;47.83;33.04;62.97;;
77361;Laerm;66427;51.798;10.954;2023-04-01T05:35:36;48.27;33.91;60.58;;
77361;Laerm;66427;51.798;10.954;2023-04-01T05:38:02;40.80;34.57;48.98;;
77361;Laerm;66427;51.798;10.954;2023-04-01T05:40:28;40.15;32.60;53.69;;
77361;Laerm;66427;51.798;10.954;2023-04-01T05:42:54;47.75;33.44;62.66;;
77361;Laerm;66427;51.798;10.954;2023-04-01T05:45:20;51.73;33.32;67.30;;
77361;Laerm;66427;51.798;10.954;2023-04-01T05:47:45;40.24;33.50;51.96;;
77361;Laerm;66427;51.798;10.954;2023-04-01T05:50:11;48.93;33.41;63.63;;
77361;Laerm;66427;51.798;10.954;2023-04-01T05:52:38;49.71;34.68;66.41;;
77361;Laerm;66427;51.798;10.954;2023-04-01T05:55:04;40.26;34.31;49.55;;
77361;Laerm;66427;51.798;10.954;2023-04-01T05:57:30;54.41;33.59;68.09;;
77361;Laerm;66427;51.798;10.954;2023-04-01T05:59:55;48.29;34.57;62.86;;
77361;Laerm;66427;51.798;10.954;2023-04-01T06:02:21;53.38;33.81;68.22;;
77361;Laerm;66427;51.798;10.954;2023-04-01T06:04:47;50.41;33.95;63.47;;
77361;Laerm;66427;51.798;10.954;2023-04-01T06:07:13;56.55;35.56;68.15;;
77361;Laerm;66427;51.798;10.954;2023-04-01T06:09:39;56.29;35.91;70.88;;
77361;Laerm;66427;51.798;10.954;2023-04-01T06:19:47;49.08;35.07;63.94;;
77361;Laerm;66427;51.798;10.954;2023-04-01T06:22:20;43.35;34.29;63.62;;
77361;Laerm;66427;51.798;10.954;2023-04-01T06:30:05;59.05;35.09;76.59;;
77361;Laerm;66427;51.798;10.954;2023-04-01T06:32:39;57.73;36.27;68.82;;
77361;Laerm;66427;51.798;10.954;2023-04-01T06:35:11;51.80;34.69;69.25;;
77361;Laerm;66427;51.798;10.954;2023-04-01T06:47:57;52.87;37.67;65.03;;
77361;Laerm;66427;51.798;10.954;2023-04-01T06:53:16;54.88;35.57;69.05;;
77361;Laerm;66427;51.798;10.954;2023-04-01T06:55:45;55.25;35.66;66.55;;
77361;Laerm;66427;51.798;10.954;2023-04-01T06:58:29;56.57;36.46;72.68;;
77361;Laerm;66427;51.798;10.954;2023-04-01T07:00:58;51.62;37.61;64.49;;
77361;Laerm;66427;51.798;10.954;2023-04-01T07:03:34;61.42;36.08;81.36;;
77361;Laerm;66427;51.798;10.954;2023-04-01T07:06:05;52.05;36.23;67.10;;
77361;Laerm;66427;51.798;10.954;2023-04-01T07:08:33;49.19;37.29;63.17;;
77361;Laerm;66427;51.798;10.954;2023-04-01T07:11:02;54.05;36.33;68.19;;
77361;Laerm;66427;51.798;10.954;2023-04-01T07:13:48;54.64;36.85;69.90;;
77361;Laerm;66427;51.798;10.954;2023-04-01T07:21:47;56.35;41.89;74.11;;
77361;Laerm;66427;51.798;10.954;2023-04-01T07:24:17;51.69;40.65;64.39;;
77361;Laerm;66427;51.798;10.954;2023-04-01T07:26:47;50.95;39.00;64.04;;
77361;Laerm;66427;51.798;10.954;2023-04-01T07:29:14;53.64;38.49;64.78;;
77361;Laerm;66427;51.798;10.954;2023-04-01T07:34:25;57.65;39.16;75.48;;
77361;Laerm;66427;51.798;10.954;2023-04-01T07:36:57;56.80;37.52;68.51;;
77361;Laerm;66427;51.798;10.954;2023-04-01T07:39:30;54.16;38.06;67.34;;
77361;Laerm;66427;51.798;10.954;2023-04-01T07:44:47;55.07;42.51;66.57;;
77361;Laerm;66427;51.798;10.954;2023-04-01T07:47:26;53.08;43.26;62.56;;
77361;Laerm;66427;51.798;10.954;2023-04-01T07:53:01;50.35;36.53;63.87;;
77361;Laerm;66427;51.798;10.954;2023-04-01T07:55:45;54.87;35.61;68.75;;
77361;Laerm;66427;51.798;10.954;2023-04-01T07:58:19;58.65;38.17;72.94;;
77361;Laerm;66427;51.798;10.954;2023-04-01T08:00:49;53.73;39.56;64.40;;
77361;Laerm;66427;51.798;10.954;2023-04-01T08:05:50;56.31;40.36;67.90;;
77361;Laerm;66427;51.798;10.954;2023-04-01T08:19:06;52.62;36.93;68.41;;
77361;Laerm;66427;51.798;10.954;2023-04-01T08:21:38;54.19;36.80;66.40;;
77361;Laerm;66427;51.798;10.954;2023-04-01T08:24:11;57.28;39.96;68.75;;
77361;Laerm;66427;51.798;10.954;2023-04-01T08:26:42;59.05;39.45;73.03;;
77361;Laerm;66427;51.798;10.954;2023-04-01T08:29:14;54.36;39.26;66.83;;
77361;Laerm;66427;51.798;10.954;2023-04-01T08:32:02;59.66;40.17;75.45;;
77361;Laerm;66427;51.798;10.954;2023-04-01T08:34:34;53.82;37.86;65.91;;
77361;Laerm;66427;51.798;10.954;2023-04-01T08:37:05;54.39;37.81;67.79;;
77361;Laerm;66427;51.798;10.954;2023-04-01T08:39:37;58.36;39.48;67.96;;
77361;Laerm;66427;51.798;10.954;2023-04-01T08:42:19;52.60;39.68;66.12;;
77361;Laerm;66427;51.798;10.954;2023-04-01T08:45:02;63.52;37.90;79.67;;
77361;Laerm;66427;51.798;10.954;2023-04-01T08:52:58;58.75;37.80;70.21;;
77361;Laerm;66427;51.798;10.954;2023-04-01T08:58:11;55.60;38.49;68.50;;
77361;Laerm;66427;51.798;10.954;2023-04-01T09:03:34;56.67;37.88;68.56;;
77361;Laerm;66427;51.798;10.954;2023-04-01T09:11:17;52.88;37.88;64.76;;
77361;Laerm;66427;51.798;10.954;2023-04-01T09:19:11;56.70;37.47;70.54;;
77361;Laerm;66427;51.798;10.954;2023-04-01T09:22:01;52.60;37.60;65.40;;
77361;Laerm;66427;51.798;10.954;2023-04-01T09:24:35;53.66;40.25;64.77;;
77361;Laerm;66427;51.798;10.954;2023-04-01T09:29:54;55.92;38.85;70.57;;
77361;Laerm;66427;51.798;10.954;2023-04-01T09:34:54;56.78;38.84;70.63;;
77361;Laerm;66427;51.798;10.954;2023-04-01T09:39:51;51.37;39.22;62.21;;
77361;Laerm;66427;51.798;10.954;2023-04-01T09:47:57;56.48;37.79;70.42;;
77361;Laerm;66427;51.798;10.954;2023-04-01T09:50:31;51.93;37.53;65.57;;
77361;Laerm;66427;51.798;10.954;2023-04-01T09:53:07;52.28;37.07;64.89;;
77361;Laerm;66427;51.798;10.954;2023-04-01T09:56:01;48.10;37.40;63.17;;
77361;Laerm;66427;51.798;10.954;2023-04-01T10:03:59;56.10;37.42;75.38;;
77361;Laerm;66427;51.798;10.954;2023-04-01T10:09:23;52.94;35.23;68.23;;
77361;Laerm;66427;51.798;10.954;2023-04-01T10:12:07;52.75;36.83;67.79;;
77361;Laerm;66427;51.798;10.954;2023-04-01T10:15:05;54.92;37.33;70.61;;
77361;Laerm;66427;51.798;10.954;2023-04-01T10:17:51;54.67;37.25;71.19;;
77361;Laerm;66427;51.798;10.954;2023-04-01T10:23:20;51.67;35.35;64.76;;
77361;Laerm;66427;51.798;10.954;2023-04-01T10:26:06;42.06;35.03;53.02;;
77361;Laerm;66427;51.798;10.954;2023-04-01T10:31:11;59.51;37.72;77.60;;
77361;Laerm;66427;51.798;10.954;2023-04-01T10:36:50;49.07;35.58;63.41;;
77361;Laerm;66427;51.798;10.954;2023-04-01T10:44:36;49.52;34.50;62.30;;
77361;Laerm;66427;51.798;10.954;2023-04-01T10:47:19;51.82;35.78;67.82;;
77361;Laerm;66427;51.798;10.954;2023-04-01T10:52:27;52.42;40.30;64.57;;
77361;Laerm;66427;51.798;10.954;2023-04-01T10:57:42;49.96;35.77;62.16;;
77361;Laerm;66427;51.798;10.954;2023-04-01T11:00:18;51.92;34.73;65.57;;
77361;Laerm;66427;51.798;10.954;2023-04-01T11:02:58;55.23;36.37;69.43;;
77361;Laerm;66427;51.798;10.954;2023-04-01T11:08:25;53.14;36.41;70.36;;
77361;Laerm;66427;51.798;10.954;2023-04-01T11:11:12;56.01;35.56;71.45;;
77361;Laerm;66427;51.798;10.954;2023-04-01T11:14:02;48.41;34.83;63.58;;
77361;Laerm;66427;51.798;10.954;2023-04-01T11:16:47;45.10;35.96;61.78;;
77361;Laerm;66427;51.798;10.954;2023-04-01T11:19:35;53.10;35.62;65.35;;
77361;Laerm;66427;51.798;10.954;2023-04-01T11:22:29;56.63;36.02;72.72;;
77361;Laerm;66427;51.798;10.954;2023-04-01T11:25:11;50.65;36.46;68.49;;
77361;Laerm;66427;51.798;10.954;2023-04-01T11:33:18;54.70;36.11;68.26;;
77361;Laerm;66427;51.798;10.954;2023-04-01T11:46:10;62.34;36.00;81.75;;
77361;Laerm;66427;51.798;10.954;2023-04-01T11:48:41;58.01;36.35;72.98;;
77361;Laerm;66427;51.798;10.954;2023-04-01T11:59:00;56.58;38.23;68.33;;
77361;Laerm;66427;51.798;10.954;2023-04-01T12:01:36;53.53;36.49;67.60;;
77361;Laerm;66427;51.798;10.954;2023-04-01T12:04:26;50.67;35.74;62.89;;
77361;Laerm;66427;51.798;10.954;2023-04-01T12:12:18;52.84;37.09;68.78;;
77361;Laerm;66427;51.798;10.954;2023-04-01T12:15:50;53.34;40.49;71.29;;
77361;Laerm;66427;51.798;10.954;2023-04-01T12:22:56;48.94;36.31;66.63;;
77361;Laerm;66427;51.798;10.954;2023-04-01T12:38:30;51.64;36.17;65.32;;
77361;Laerm;66427;51.798;10.954;2023-04-01T12:41:13;54.16;38.05;66.65;;
77361;Laerm;66427;51.798;10.954;2023-04-01T12:48:51;56.05;37.72;67.27;;
77361;Laerm;66427;51.798;10.954;2023-04-01T12:54:14;53.98;35.65;67.99;;
77361;Laerm;66427;51.798;10.954;2023-04-01T12:59:25;54.85;39.71;67.61;;
77361;Laerm;66427;51.798;10.954;2023-04-01T13:01:59;62.40;40.28;83.11;;
77361;Laerm;66427;51.798;10.954;2023-04-01T13:06:54;53.47;38.16;66.65;;
77361;Laerm;66427;51.798;10.954;2023-04-01T13:09:31;54.95;38.81;66.28;;
77361;Laerm;66427;51.798;10.954;2023-04-01T13:17:32;56.06;36.48;70.11;;
77361;Laerm;66427;51.798;10.954;2023-04-01T13:20:02;55.38;36.32;68.79;;
77361;Laerm;66427;51.798;10.954;2023-04-01T13:22:45;57.25;36.69;70.77;;
77361;Laerm;66427;51.798;10.954;2023-04-01T13:25:22;56.53;37.76;68.69;;
77361;Laerm;66427;51.798;10.954;2023-04-01T13:27:51;57.84;37.63;68.45;;
77361;Laerm;66427;51.798;10.954;2023-04-01T13:30:24;58.03;38.05;71.79;;
77361;Laerm;66427;51.798;10.954;2023-04-01T13:33:13;56.45;48.17;66.81;;
77361;Laerm;66427;51.798;10.954;2023-04-01T13:35:46;63.32;54.26;74.66;;
77361;Laerm;66427;51.798;10.954;2023-04-01T13:43:35;56.81;45.91;71.16;;
77361;Laerm;66427;51.798;10.954;2023-04-01T13:51:21;60.94;40.41;71.55;;
77361;Laerm;66427;51.798;10.954;2023-04-01T13:59:21;52.41;38.79;67.87;;
77361;Laerm;66427;51.798;10.954;2023-04-01T14:02:05;56.44;37.03;69.25;;
77361;Laerm;66427;51.798;10.954;2023-04-01T14:04:50;55.83;38.21;68.87;;
77361;Laerm;66427;51.798;10.954;2023-04-01T14:10:24;58.64;39.88;70.44;;
77361;Laerm;66427;51.798;10.954;2023-04-01T14:21:05;54.33;38.78;67.04;;
77361;Laerm;66427;51.798;10.954;2023-04-01T14:26:07;53.36;40.58;65.46;;
77361;Laerm;66427;51.798;10.954;2023-04-01T14:28:39;58.39;41.98;69.53;;
77361;Laerm;66427;51.798;10.954;2023-04-01T14:44:44;60.19;43.29;69.77;;
77361;Laerm;66427;51.798;10.954;2023-04-01T14:49:46;56.06;42.91;69.01;;
77361;Laerm;66427;51.798;10.954;2023-04-01T14:52:38;55.88;42.19;67.70;;
77361;Laerm;66427;51.798;10.954;2023-04-01T14:55:15;58.08;43.10;69.52;;
77361;Laerm;66427;51.798;10.954;2023-04-01T14:57:57;58.81;43.86;73.21;;
77361;Laerm;66427;51.798;10.954;2023-04-01T15:00:24;58.29;45.02;70.93;;
77361;Laerm;66427;51.798;10.954;2023-04-01T15:08:00;56.00;41.91;68.12;;
77361;Laerm;66427;51.798;10.954;2023-04-01T15:13:13;58.94;42.52;73.66;;
77361;Laerm;66427;51.798;10.954;2023-04-01T15:15:48;57.84;42.10;69.59;;
77361;Laerm;66427;51.798;10.954;2023-04-01T15:18:23;57.66;41.69;72.15;;
77361;Laerm;66427;51.798;10.954;2023-04-01T15:20:56;56.97;42.79;72.05;;
77361;Laerm;66427;51.798;10.954;2023-04-01T15:26:24;55.50;42.78;69.37;;
77361;Laerm;66427;51.798;10.954;2023-04-01T15:31:48;55.94;42.40;70.91;;
77361;Laerm;66427;51.798;10.954;2023-04-01T15:34:32;57.03;46.11;68.42;;
77361;Laerm;66427;51.798;10.954;2023-04-01T15:37:06;60.76;47.42;71.27;;
77361;Laerm;66427;51.798;10.954;2023-04-01T15:39:54;56.72;49.02;73.77;;
77361;Laerm;66427;51.798;10.954;2023-04-01T15:42:30;61.72;47.89;76.64;;
77361;Laerm;66427;51.798;10.954;2023-04-01T15:45:00;61.20;48.38;72.54;;
77361;Laerm;66427;51.798;10.954;2023-04-01T15:47:36;60.99;47.73;75.07;;
77361;Laerm;66427;51.798;10.954;2023-04-01T15:55:27;58.90;47.17;72.76;;
77361;Laerm;66427;51.798;10.954;2023-04-01T15:58:18;66.41;47.28;82.34;;
77361;Laerm;66427;51.798;10.954;2023-04-01T16:09:10;63.46;48.66;77.58;;
77361;Laerm;66427;51.798;10.954;2023-04-01T16:14:33;63.04;47.38;75.16;;
77361;Laerm;66427;51.798;10.954;2023-04-01T16:19:45;60.39;47.30;72.12;;
77361;Laerm;66427;51.798;10.954;2023-04-01T16:22:27;58.69;47.27;71.23;;
77361;Laerm;66427;51.798;10.954;2023-04-01T16:27:43;51.20;46.24;65.95;;
77361;Laerm;66427;51.798;10.954;2023-04-01T16:33:03;63.38;47.64;76.42;;
77361;Laerm;66427;51.798;10.954;2023-04-01T16:39:02;54.68;45.91;70.02;;
77361;Laerm;66427;51.798;10.954;2023-04-01T16:41:10;60.91;46.51;77.32;;
77361;Laerm;66427;51.798;10.954;2023-04-01T16:43:41;59.98;45.46;75.81;;
77361;Laerm;66427;51.798;10.954;2023-04-01T16:46:14;61.21;45.92;72.28;;
77361;Laerm;66427;51.798;10.954;2023-04-01T16:51:26;60.60;46.33;73.45;;
77361;Laerm;66427;51.798;10.954;2023-04-01T16:54:04;58.58;45.75;72.38;;
77361;Laerm;66427;51.798;10.954;2023-04-01T16:56:37;50.15;44.94;60.17;;
77361;Laerm;66427;51.798;10.954;2023-04-01T17:01:40;50.67;47.36;62.86;;
77361;Laerm;66427;51.798;10.954;2023-04-01T17:04:20;59.77;46.80;71.96;;
77361;Laerm;66427;51.798;10.954;2023-04-01T17:06:52;60.88;47.64;71.54;;
77361;Laerm;66427;51.798;10.954;2023-04-01T17:09:29;60.48;45.27;74.74;;
77361;Laerm;66427;51.798;10.954;2023-04-01T17:12:04;58.90;44.52;71.43;;
77361;Laerm;66427;51.798;10.954;2023-04-01T17:14:43;51.25;46.65;65.57;;
77361;Laerm;66427;51.798;10.954;2023-04-01T17:17:31;59.37;49.31;74.85;;
77361;Laerm;66427;51.798;10.954;2023-04-01T17:20:12;59.74;50.42;73.67;;
77361;Laerm;66427;51.798;10.954;2023-04-01T17:22:47;60.23;49.21;72.93;;
77361;Laerm;66427;51.798;10.954;2023-04-01T17:25:25;57.19;49.33;75.32;;
77361;Laerm;66427;51.798;10.954;2023-04-01T17:27:57;52.45;48.48;63.17;;
77361;Laerm;66427;51.798;10.954;2023-04-01T17:30:35;58.02;45.55;70.56;;
77361;Laerm;66427;51.798;10.954;2023-04-01T17:33:17;52.45;42.45;67.97;;
77361;Laerm;66427;51.798;10.954;2023-04-01T17:38:17;58.19;40.22;75.71;;
77361;Laerm;66427;51.798;10.954;2023-04-01T17:40:58;44.90;39.65;63.69;;
77361;Laerm;66427;51.798;10.954;2023-04-01T17:46:24;46.46;40.92;63.19;;
77361;Laerm;66427;51.798;10.954;2023-04-01T17:48:55;57.75;40.78;75.12;;
77361;Laerm;66427;51.798;10.954;2023-04-01T17:51:29;48.44;41.76;66.29;;
77361;Laerm;66427;51.798;10.954;2023-04-01T17:54:05;59.57;40.84;73.14;;
77361;Laerm;66427;51.798;10.954;2023-04-01T17:56:41;52.53;39.50;66.00;;
77361;Laerm;66427;51.798;10.954;2023-04-01T18:02:27;52.07;38.48;69.70;;
77361;Laerm;66427;51.798;10.954;2023-04-01T18:05:05;50.65;40.39;69.00;;
77361;Laerm;66427;51.798;10.954;2023-04-01T18:07:51;55.81;41.19;71.25;;
77361;Laerm;66427;51.798;10.954;2023-04-01T18:10:28;51.31;40.91;64.66;;
77361;Laerm;66427;51.798;10.954;2023-04-01T18:18:31;51.68;38.12;65.82;;
77361;Laerm;66427;51.798;10.954;2023-04-01T18:23:51;54.12;41.54;69.71;;
77361;Laerm;66427;51.798;10.954;2023-04-01T18:26:21;51.94;41.28;66.29;;
77361;Laerm;66427;51.798;10.954;2023-04-01T18:28:49;52.05;39.35;68.78;;
77361;Laerm;66427;51.798;10.954;2023-04-01T18:31:21;53.66;41.16;66.95;;
77361;Laerm;66427;51.798;10.954;2023-04-01T18:39:06;57.10;40.05;69.47;;
77361;Laerm;66427;51.798;10.954;2023-04-01T18:41:35;56.00;39.76;68.82;;
77361;Laerm;66427;51.798;10.954;2023-04-01T18:44:07;57.06;41.04;70.19;;
77361;Laerm;66427;51.798;10.954;2023-04-01T18:46:54;52.90;40.50;69.79;;
77361;Laerm;66427;51.798;10.954;2023-04-01T18:49:39;52.87;40.47;69.24;;
77361;Laerm;66427;51.798;10.954;2023-04-01T18:54:44;60.42;43.06;75.03;;
77361;Laerm;66427;51.798;10.954;2023-04-01T18:57:12;59.02;42.81;71.02;;
77361;Laerm;66427;51.798;10.954;2023-04-01T18:59:58;57.73;41.62;71.16;;
77361;Laerm;66427;51.798;10.954;2023-04-01T19:02:31;53.25;42.92;69.81;;
77361;Laerm;66427;51.798;10.954;2023-04-01T19:05:04;53.30;43.36;69.28;;
77361;Laerm;66427;51.798;10.954;2023-04-01T19:10:00;44.15;40.42;53.76;;